Time;durP1;ratioP1;P1;durP2;ratioP2;P2;SDS_P1;SDS_P2;PMS_P1;PMS_P2;Temp;Humidity;BMP_temperature;BMP_pressure;BME280_temperature;BME280_humidity;BME280_pressure;Samples;Min_cycle;Max_cycle;Signal;HPM_P1;HPM_P2
2021/12/27 00:00:23;;;;;;;6.90;6.20;;;10.10;99.90;;;;;;4975229;28;20194;-24
2021/12/27 00:02:55;;;;;;;7.47;6.03;;;10.10;99.90;;;;;;4991539;28;21089;-24
2021/12/27 00:05:23;;;;;;;6.97;6.07;;;10.10;99.90;;;;;;4990153;28;20219;-24
2021/12/27 00:07:51;;;;;;;7.10;6.27;;;10.10;99.90;;;;;;4990088;28;20203;-24
2021/12/27 00:10:20;;;;;;;6.83;5.90;;;10.10;99.90;;;;;;4976594;28;20207;-24
2021/12/27 00:12:52;;;;;;;6.73;6.00;;;10.10;99.90;;;;;;4981936;28;20229;-24
2021/12/27 00:15:20;;;;;;;7.00;6.27;;;10.10;99.90;;;;;;4971688;28;20256;-24
2021/12/27 00:17:47;;;;;;;6.73;6.03;;;10.20;99.90;;;;;;4971727;28;20685;-24
2021/12/27 00:20:18;;;;;;;6.80;6.10;;;10.20;99.90;;;;;;4971898;28;20201;-24
2021/12/27 00:22:46;;;;;;;6.77;6.07;;;10.20;99.90;;;;;;4971403;28;20769;-23
2021/12/27 00:25:14;;;;;;;7.60;6.30;;;10.20;99.90;;;;;;4972257;28;20301;-24
2021/12/27 00:27:53;;;;;;;7.43;6.07;;;10.20;99.90;;;;;;4974791;28;20209;-24
2021/12/27 00:30:24;;;;;;;7.93;6.47;;;10.20;99.90;;;;;;4991122;28;20198;-24
2021/12/27 00:32:51;;;;;;;6.70;5.80;;;10.20;99.90;;;;;;4990856;28;20202;-24
2021/12/27 00:35:22;;;;;;;7.50;6.50;;;10.20;99.90;;;;;;4990761;28;20222;-24
2021/12/27 00:37:49;;;;;;;7.97;6.73;;;10.20;99.90;;;;;;4989833;28;20563;-24
2021/12/27 00:40:16;;;;;;;9.83;7.23;;;10.20;99.90;;;;;;4990635;28;20703;-24
2021/12/27 00:42:49;;;;;;;9.63;6.30;;;10.20;99.90;;;;;;4971952;28;20207;-24
2021/12/27 00:45:17;;;;;;;7.90;6.67;;;10.20;99.90;;;;;;4977340;28;20210;-24
2021/12/27 00:47:44;;;;;;;7.17;6.40;;;10.20;99.90;;;;;;4989635;28;20210;-24
2021/12/27 00:50:13;;;;;;;7.97;6.97;;;10.20;99.90;;;;;;4990613;28;20240;-24
2021/12/27 00:52:41;;;;;;;7.83;6.53;;;10.20;99.90;;;;;;4990143;28;20248;-24
2021/12/27 00:55:11;;;;;;;7.33;6.30;;;10.20;99.90;;;;;;4990028;28;20747;-24
2021/12/27 00:57:38;;;;;;;9.30;6.47;;;10.20;99.90;;;;;;4986220;28;20210;-24
2021/12/27 01:00:09;;;;;;;7.43;6.63;;;10.20;99.90;;;;;;4974391;28;20205;-24
2021/12/27 01:02:37;;;;;;;8.63;6.73;;;10.20;99.90;;;;;;4978337;28;21107;-24
2021/12/27 01:05:10;;;;;;;8.53;7.23;;;10.20;99.90;;;;;;4971079;28;20261;-24
2021/12/27 01:07:40;;;;;;;9.17;7.33;;;10.20;99.90;;;;;;4971199;28;20301;-24
2021/12/27 01:15:46;;;;;;;8.70;7.43;;;10.20;99.90;;;;;;4970712;28;20226;-24
2021/12/27 01:18:15;;;;;;;10.93;7.90;;;10.20;99.90;;;;;;4971258;28;20230;-24
2021/12/27 01:20:44;;;;;;;9.53;7.20;;;10.20;99.90;;;;;;4990319;28;20202;-24
2021/12/27 01:23:14;;;;;;;9.97;8.20;;;10.20;99.90;;;;;;4990136;28;20206;-24
2021/12/27 01:25:41;;;;;;;11.37;7.83;;;10.20;99.90;;;;;;4973079;28;20844;-24
2021/12/27 01:28:11;;;;;;;10.03;7.63;;;10.30;99.90;;;;;;4979616;28;20206;-24
2021/12/27 01:30:47;;;;;;;8.17;7.37;;;10.30;99.90;;;;;;4988538;28;20206;-24
2021/12/27 01:33:18;;;;;;;9.73;8.03;;;10.30;99.90;;;;;;4990158;28;20637;-24
2021/12/27 01:35:46;;;;;;;9.73;7.83;;;10.30;99.90;;;;;;4987605;28;20658;-24
2021/12/27 01:38:14;;;;;;;10.60;8.30;;;10.30;99.90;;;;;;4970594;28;20677;-24
2021/12/27 01:40:46;;;;;;;8.47;7.47;;;10.30;99.90;;;;;;4990505;28;20206;-24
2021/12/27 01:43:22;;;;;;;9.70;7.80;;;10.30;99.90;;;;;;4968890;28;20245;-25
2021/12/27 01:46:02;;;;;;;10.30;7.67;;;10.30;99.90;;;;;;4970291;28;20455;-25
2021/12/27 01:48:37;;;;;;;11.40;7.80;;;10.30;99.90;;;;;;4970314;28;20209;-26
2021/12/27 01:51:07;;;;;;;10.70;7.73;;;10.30;99.90;;;;;;4970488;28;20229;-25
2021/12/27 01:53:38;;;;;;;13.23;8.87;;;10.30;99.90;;;;;;4976037;28;20245;-25
2021/12/27 01:56:09;;;;;;;9.17;7.63;;;10.30;99.90;;;;;;4969216;28;20234;-25
2021/12/27 01:58:37;;;;;;;9.77;8.10;;;10.30;99.90;;;;;;4970526;28;20217;-25
2021/12/27 02:01:12;;;;;;;11.37;8.63;;;10.30;99.90;;;;;;4981745;28;20218;-25
2021/12/27 02:03:43;;;;;;;10.47;7.83;;;10.30;99.90;;;;;;4989873;28;20214;-25
2021/12/27 02:06:14;;;;;;;11.27;7.73;;;10.40;99.90;;;;;;4990288;28;20202;-25
2021/12/27 02:08:43;;;;;;;9.47;7.90;;;10.40;99.90;;;;;;4989535;28;20218;-25
2021/12/27 02:11:12;;;;;;;10.27;8.17;;;10.40;99.90;;;;;;4989488;28;20550;-25
2021/12/27 02:13:44;;;;;;;9.47;8.23;;;10.30;99.90;;;;;;4980659;28;20202;-25
2021/12/27 02:16:19;;;;;;;10.43;8.60;;;10.40;99.90;;;;;;4989413;28;20230;-25
2021/12/27 02:18:50;;;;;;;10.90;7.97;;;10.40;99.90;;;;;;4982142;28;20222;-25
2021/12/27 02:21:18;;;;;;;11.00;8.63;;;10.40;99.90;;;;;;4986576;28;20202;-25
2021/12/27 02:23:48;;;;;;;10.37;8.17;;;10.40;99.90;;;;;;4986773;28;20277;-25
2021/12/27 02:26:18;;;;;;;13.13;9.00;;;10.40;99.90;;;;;;4979433;28;20946;-25
2021/12/27 02:28:46;;;;;;;12.17;9.00;;;10.40;99.90;;;;;;4970181;28;20207;-25
2021/12/27 02:31:17;;;;;;;11.67;8.90;;;10.40;99.90;;;;;;4984269;28;20198;-25
2021/12/27 02:33:45;;;;;;;12.43;9.23;;;10.40;99.90;;;;;;4986381;28;20314;-25
2021/12/27 02:36:13;;;;;;;11.50;9.23;;;10.40;99.90;;;;;;4972641;28;20697;-25
2021/12/27 02:38:43;;;;;;;13.97;9.70;;;10.40;99.90;;;;;;4969421;28;20706;-25
2021/12/27 02:41:11;;;;;;;11.67;8.97;;;10.40;99.90;;;;;;4973841;28;20199;-25
2021/12/27 02:43:42;;;;;;;14.63;9.97;;;10.40;99.90;;;;;;4987905;28;20767;-25
2021/12/27 02:46:15;;;;;;;15.00;9.47;;;10.40;99.90;;;;;;4986168;28;20341;-25
2021/12/27 02:48:48;;;;;;;14.30;9.57;;;10.40;99.90;;;;;;4973101;28;20218;-25
2021/12/27 02:51:18;;;;;;;13.37;9.87;;;10.40;99.90;;;;;;4969660;28;20470;-25
2021/12/27 02:53:47;;;;;;;15.73;11.00;;;10.40;99.90;;;;;;4969244;28;20217;-26
2021/12/27 02:56:18;;;;;;;15.43;10.63;;;10.50;99.90;;;;;;4967465;28;20811;-25
2021/12/27 02:58:49;;;;;;;14.73;10.43;;;10.50;99.90;;;;;;4968694;28;20211;-25
2021/12/27 03:01:24;;;;;;;15.73;10.40;;;10.50;99.90;;;;;;4970034;28;20258;-24
2021/12/27 03:03:52;;;;;;;14.73;10.70;;;10.50;99.90;;;;;;4969291;28;20202;-24
2021/12/27 03:06:19;;;;;;;14.50;10.80;;;10.50;99.90;;;;;;4969030;28;20237;-24
2021/12/27 03:08:47;;;;;;;17.20;11.67;;;10.50;99.90;;;;;;4971229;28;20230;-24
2021/12/27 03:11:15;;;;;;;19.63;11.20;;;10.50;99.90;;;;;;4973163;28;20210;-24
2021/12/27 03:13:48;;;;;;;18.20;11.63;;;10.50;99.90;;;;;;4971338;28;20293;-24
2021/12/27 03:16:20;;;;;;;18.33;11.87;;;10.50;99.90;;;;;;4975077;28;20220;-24
2021/12/27 03:18:55;;;;;;;21.63;12.33;;;10.50;99.90;;;;;;4990136;28;20289;-24
2021/12/27 03:21:22;;;;;;;17.07;10.87;;;10.50;99.90;;;;;;4987699;28;20630;-24
2021/12/27 03:23:50;;;;;;;16.60;11.50;;;10.50;99.90;;;;;;4972647;28;20748;-24
2021/12/27 03:26:18;;;;;;;18.27;11.73;;;10.50;99.90;;;;;;4971030;28;20218;-24
2021/12/27 03:28:46;;;;;;;20.17;12.10;;;10.50;99.90;;;;;;4976050;28;20210;-24
2021/12/27 03:31:15;;;;;;;17.13;11.67;;;10.50;99.90;;;;;;4989132;28;20213;-24
2021/12/27 03:33:43;;;;;;;19.90;12.27;;;10.50;99.90;;;;;;4971227;28;20206;-24
2021/12/27 03:36:10;;;;;;;18.67;12.10;;;10.50;99.90;;;;;;4971868;28;20226;-24
2021/12/27 03:38:43;;;;;;;18.07;11.73;;;10.50;99.90;;;;;;4972055;28;20313;-24
2021/12/27 03:41:14;;;;;;;19.93;11.40;;;10.50;99.90;;;;;;4971992;28;20203;-24
2021/12/27 03:43:44;;;;;;;18.03;12.00;;;10.50;99.90;;;;;;4972507;28;20206;-24
2021/12/27 03:46:11;;;;;;;18.37;11.87;;;10.50;99.90;;;;;;4972489;28;20206;-24
2021/12/27 03:48:41;;;;;;;18.17;11.10;;;10.50;99.90;;;;;;4971142;28;20214;-24
2021/12/27 03:51:09;;;;;;;20.90;11.47;;;10.50;99.90;;;;;;4972606;28;20236;-24
2021/12/27 03:53:36;;;;;;;17.27;11.10;;;10.50;99.90;;;;;;4990340;28;20752;-24
2021/12/27 03:56:04;;;;;;;17.60;11.87;;;10.50;99.90;;;;;;4985858;28;20752;-24
2021/12/27 03:58:47;;;;;;;18.07;11.20;;;10.50;99.90;;;;;;4970317;28;20207;-24
2021/12/27 04:01:17;;;;;;;17.53;11.80;;;10.50;99.90;;;;;;4972000;28;20721;-24
2021/12/27 04:03:48;;;;;;;17.20;12.00;;;10.60;99.90;;;;;;4972149;28;20249;-24
2021/12/27 04:06:25;;;;;;;16.77;11.33;;;10.60;99.90;;;;;;4971117;28;20231;-24
2021/12/27 04:08:52;;;;;;;21.03;12.23;;;10.60;99.90;;;;;;4976995;28;20319;-24
2021/12/27 04:15:48;;;;;;;19.37;12.27;;;10.60;99.90;;;;;;4978963;28;20713;-23
2021/12/27 04:18:16;;;;;;;19.43;11.97;;;10.60;99.90;;;;;;4971634;28;20697;-24
2021/12/27 04:20:44;;;;;;;20.50;12.07;;;10.60;99.90;;;;;;4970561;28;20206;-24
2021/12/27 04:23:12;;;;;;;15.90;11.63;;;10.60;99.90;;;;;;4977491;28;20237;-24
2021/12/27 04:25:45;;;;;;;16.37;11.10;;;10.60;99.90;;;;;;4987748;28;20653;-24
2021/12/27 04:28:13;;;;;;;15.17;10.70;;;10.60;99.90;;;;;;4990801;28;20210;-24
2021/12/27 04:30:41;;;;;;;16.47;11.17;;;10.60;99.90;;;;;;4988680;28;20237;-24
2021/12/27 04:33:08;;;;;;;17.07;11.20;;;10.60;99.90;;;;;;4971630;28;20203;-24
2021/12/27 04:35:38;;;;;;;15.10;10.73;;;10.60;99.90;;;;;;4987262;28;20202;-24
2021/12/27 04:38:05;;;;;;;15.80;10.83;;;10.70;99.90;;;;;;4990770;28;20226;-24
2021/12/27 04:40:36;;;;;;;13.20;10.13;;;10.70;99.90;;;;;;5003127;28;20741;-24
2021/12/27 04:43:11;;;;;;;16.97;11.20;;;10.70;99.90;;;;;;4971109;28;20305;-24
2021/12/27 04:45:39;;;;;;;13.97;10.53;;;10.70;99.90;;;;;;4971444;28;20281;-25
2021/12/27 04:48:07;;;;;;;13.57;9.70;;;10.70;99.90;;;;;;4971649;28;20206;-24
2021/12/27 04:50:35;;;;;;;16.07;9.80;;;10.70;99.90;;;;;;4969367;28;20229;-24
2021/12/27 04:53:03;;;;;;;14.73;9.40;;;10.70;99.90;;;;;;4976175;28;20229;-24
2021/12/27 04:55:30;;;;;;;12.30;8.50;;;10.70;99.90;;;;;;4988340;28;20210;-24
2021/12/27 04:58:07;;;;;;;11.03;8.30;;;10.70;99.90;;;;;;4988671;28;20642;-24
2021/12/27 05:00:35;;;;;;;10.17;7.83;;;10.70;99.90;;;;;;4978972;28;20597;-24
2021/12/27 05:03:07;;;;;;;12.93;8.27;;;10.70;99.90;;;;;;4969542;28;20211;-24
2021/12/27 05:05:36;;;;;;;10.60;7.90;;;10.70;99.90;;;;;;4974270;28;20191;-24
2021/12/27 05:08:04;;;;;;;10.20;7.87;;;10.70;99.90;;;;;;4986101;28;20253;-24
2021/12/27 05:10:31;;;;;;;10.00;7.37;;;10.70;99.90;;;;;;4989432;28;20206;-24
2021/12/27 05:12:59;;;;;;;10.07;7.37;;;10.70;99.90;;;;;;4989908;28;20218;-24
2021/12/27 05:15:28;;;;;;;12.07;7.43;;;10.70;99.90;;;;;;4988720;28;20874;-24
2021/12/27 05:17:58;;;;;;;8.77;7.43;;;10.70;99.90;;;;;;4974802;28;20227;-24
2021/12/27 05:20:30;;;;;;;10.47;7.40;;;10.70;99.90;;;;;;4970468;28;20736;-24
2021/12/27 05:22:58;;;;;;;8.60;7.17;;;10.70;99.90;;;;;;4970535;28;20278;-24
2021/12/27 05:25:29;;;;;;;8.40;6.73;;;10.70;99.90;;;;;;4969968;28;20326;-24
2021/12/27 05:27:57;;;;;;;10.07;6.90;;;10.70;99.90;;;;;;4970355;28;20208;-24
2021/12/27 05:30:24;;;;;;;10.70;6.93;;;10.70;99.90;;;;;;4970376;28;20273;-24
2021/12/27 05:32:51;;;;;;;9.37;6.73;;;10.70;99.90;;;;;;4971115;28;20211;-24
2021/12/27 05:35:19;;;;;;;10.43;6.63;;;10.70;99.90;;;;;;4972331;28;20306;-24
2021/12/27 05:37:46;;;;;;;9.87;7.47;;;10.60;99.90;;;;;;4968840;28;20795;-24
2021/12/27 05:40:17;;;;;;;9.73;7.13;;;10.60;99.90;;;;;;4970175;28;20215;-24
2021/12/27 05:42:49;;;;;;;9.17;6.50;;;10.60;99.90;;;;;;4983346;28;20666;-24
2021/12/27 05:45:18;;;;;;;9.57;7.40;;;10.50;99.90;;;;;;4970227;28;20211;-24
2021/12/27 05:47:45;;;;;;;11.23;6.97;;;10.50;99.90;;;;;;4968537;28;20249;-24
2021/12/27 05:50:18;;;;;;;10.83;7.17;;;10.50;99.90;;;;;;4970573;28;20211;-24
2021/12/27 05:52:51;;;;;;;10.77;7.70;;;10.40;99.90;;;;;;4969974;28;20237;-24
2021/12/27 05:55:19;;;;;;;11.50;8.37;;;10.40;99.90;;;;;;4969540;28;20226;-24
2021/12/27 05:57:49;;;;;;;8.80;7.50;;;10.30;99.90;;;;;;4971481;28;20280;-24
2021/12/27 06:00:17;;;;;;;8.90;7.60;;;10.30;99.90;;;;;;4985599;28;20229;-24
2021/12/27 06:02:47;;;;;;;10.17;7.77;;;10.30;99.90;;;;;;4985924;28;20791;-24
2021/12/27 06:05:17;;;;;;;14.47;8.37;;;10.20;99.90;;;;;;4988490;28;20289;-24
2021/12/27 06:07:44;;;;;;;12.10;8.83;;;10.20;99.90;;;;;;4987195;28;20293;-24
2021/12/27 06:10:11;;;;;;;13.90;10.23;;;10.10;99.90;;;;;;4986326;28;20202;-24
2021/12/27 06:12:40;;;;;;;13.10;9.00;;;10.10;99.90;;;;;;4986921;28;20316;-24
2021/12/27 06:15:08;;;;;;;12.03;9.23;;;10.00;99.90;;;;;;4988952;28;20596;-24
2021/12/27 06:17:35;;;;;;;15.70;10.43;;;10.00;99.90;;;;;;4987725;28;20230;-24
2021/12/27 06:20:10;;;;;;;14.63;10.40;;;10.00;99.90;;;;;;4987674;28;20217;-24
2021/12/27 06:22:40;;;;;;;13.57;10.10;;;9.90;99.90;;;;;;4988520;28;20214;-24
2021/12/27 06:25:07;;;;;;;13.93;10.00;;;9.90;99.90;;;;;;4979895;28;20238;-24
2021/12/27 06:27:35;;;;;;;14.10;10.63;;;9.80;99.90;;;;;;4983515;28;20237;-24
2021/12/27 06:30:07;;;;;;;13.50;10.20;;;9.80;99.90;;;;;;4987957;28;20702;-24
2021/12/27 06:32:38;;;;;;;13.50;10.17;;;9.80;99.90;;;;;;4988823;28;20210;-24
2021/12/27 06:35:10;;;;;;;13.63;10.50;;;9.70;99.90;;;;;;4987154;28;20221;-24
2021/12/27 06:37:39;;;;;;;17.20;10.77;;;9.70;99.90;;;;;;4968667;28;20227;-24
2021/12/27 06:40:09;;;;;;;15.10;10.97;;;9.70;99.90;;;;;;4968877;28;20210;-24
2021/12/27 06:42:37;;;;;;;15.13;10.80;;;9.60;99.90;;;;;;4974270;28;20238;-24
2021/12/27 06:45:05;;;;;;;12.93;10.07;;;9.60;99.90;;;;;;4969491;28;20645;-24
2021/12/27 06:47:33;;;;;;;13.37;10.57;;;9.60;99.90;;;;;;4985513;28;20685;-24
2021/12/27 06:50:00;;;;;;;12.67;9.67;;;9.60;99.90;;;;;;4978266;28;20212;-24
2021/12/27 06:52:27;;;;;;;15.00;11.17;;;9.60;99.90;;;;;;4972359;28;20561;-24
2021/12/27 06:54:55;;;;;;;14.40;10.03;;;9.60;99.90;;;;;;4970758;28;20273;-24
2021/12/27 06:57:30;;;;;;;12.33;9.63;;;9.60;99.90;;;;;;4968978;28;20783;-24
2021/12/27 06:59:58;;;;;;;13.53;9.73;;;9.60;99.90;;;;;;4981128;28;20320;-24
2021/12/27 07:02:28;;;;;;;12.87;9.63;;;9.60;99.90;;;;;;4975599;28;20198;-24
2021/12/27 07:04:59;;;;;;;12.80;10.00;;;9.60;99.90;;;;;;4972252;28;20206;-24
2021/12/27 07:07:27;;;;;;;13.33;9.87;;;9.60;99.90;;;;;;4976311;28;20207;-24
2021/12/27 07:09:54;;;;;;;11.57;9.50;;;9.60;99.90;;;;;;4976028;28;20229;-24
2021/12/27 07:12:22;;;;;;;11.83;9.50;;;9.60;99.90;;;;;;4981174;28;20548;-24
2021/12/27 07:14:53;;;;;;;12.47;9.00;;;9.60;99.90;;;;;;4988654;28;20711;-24
2021/12/27 07:17:23;;;;;;;12.37;8.77;;;9.70;99.90;;;;;;4973740;28;20582;-24
2021/12/27 07:19:58;;;;;;;11.10;8.40;;;9.70;99.90;;;;;;4980642;28;20302;-24
2021/12/27 07:22:25;;;;;;;11.77;8.10;;;9.70;99.90;;;;;;4984568;28;20217;-24
2021/12/27 07:24:53;;;;;;;11.33;8.33;;;9.70;99.90;;;;;;4979639;28;20218;-24
2021/12/27 07:27:22;;;;;;;13.57;8.23;;;9.70;99.90;;;;;;4985665;28;20293;-24
2021/12/27 07:29:50;;;;;;;11.77;8.20;;;9.70;99.90;;;;;;4970051;28;20301;-24
2021/12/27 07:32:17;;;;;;;9.83;7.57;;;9.70;99.90;;;;;;4978630;28;20235;-24
2021/12/27 07:34:45;;;;;;;11.20;8.30;;;9.60;99.90;;;;;;4973125;28;20202;-24
2021/12/27 07:37:16;;;;;;;11.20;7.60;;;9.60;99.90;;;;;;4970674;28;20228;-24
2021/12/27 07:39:45;;;;;;;9.67;7.67;;;9.60;99.90;;;;;;4977321;28;20704;-24
2021/12/27 07:42:13;;;;;;;9.43;6.93;;;9.60;99.90;;;;;;4975604;28;20203;-24
2021/12/27 07:44:45;;;;;;;9.27;6.97;;;9.70;99.90;;;;;;4987230;28;20744;-24
2021/12/27 07:47:16;;;;;;;9.30;7.10;;;9.70;99.90;;;;;;4981751;28;20292;-24
2021/12/27 07:49:43;;;;;;;9.00;6.70;;;9.70;99.90;;;;;;4969937;28;20239;-24
2021/12/27 07:52:12;;;;;;;9.50;6.90;;;9.70;99.90;;;;;;4983644;28;20312;-24
2021/12/27 07:54:40;;;;;;;9.20;6.47;;;9.70;99.90;;;;;;4981444;28;20261;-24
2021/12/27 07:57:07;;;;;;;8.00;6.40;;;9.70;99.90;;;;;;4971293;28;20334;-24
2021/12/27 07:59:37;;;;;;;8.90;6.90;;;9.70;99.90;;;;;;4979007;28;20203;-24
2021/12/27 08:02:04;;;;;;;9.57;6.40;;;9.70;99.90;;;;;;4970582;28;20214;-24
2021/12/27 08:04:34;;;;;;;8.00;6.10;;;9.70;99.90;;;;;;4971808;28;20206;-24
2021/12/27 08:07:02;;;;;;;8.53;6.33;;;9.80;99.90;;;;;;4978120;28;20222;-24
2021/12/27 08:09:31;;;;;;;7.70;6.30;;;9.80;99.90;;;;;;4978617;28;20198;-24
2021/12/27 08:11:59;;;;;;;8.70;5.77;;;9.80;99.90;;;;;;4989319;28;20225;-24
2021/12/27 08:14:26;;;;;;;8.40;6.37;;;9.80;99.90;;;;;;4971929;28;20313;-24
2021/12/27 08:16:54;;;;;;;8.63;5.63;;;9.80;99.90;;;;;;4975561;28;20205;-24
2021/12/27 08:19:26;;;;;;;8.13;6.07;;;9.80;99.90;;;;;;4981129;28;20195;-24
2021/12/27 08:21:53;;;;;;;8.13;6.10;;;9.90;99.90;;;;;;4970020;28;20207;-24
2021/12/27 08:24:20;;;;;;;7.20;5.83;;;9.90;99.90;;;;;;4971078;28;20213;-24
2021/12/27 08:26:47;;;;;;;8.17;6.03;;;9.90;99.90;;;;;;4971499;28;20198;-24
2021/12/27 08:29:17;;;;;;;6.53;4.93;;;9.90;99.90;;;;;;4971003;28;20716;-25
2021/12/27 08:31:45;;;;;;;8.40;5.80;;;9.90;99.90;;;;;;4971840;28;20387;-25
2021/12/27 08:34:14;;;;;;;9.10;6.23;;;9.90;99.90;;;;;;4972098;28;20713;-25
2021/12/27 08:36:44;;;;;;;6.43;5.30;;;9.90;99.90;;;;;;4971531;28;21030;-25
2021/12/27 08:39:11;;;;;;;9.23;5.83;;;10.00;99.90;;;;;;4985575;28;20616;-25
2021/12/27 08:41:39;;;;;;;8.77;6.00;;;10.00;99.90;;;;;;4988329;28;20228;-25
2021/12/27 08:44:08;;;;;;;7.83;5.50;;;10.00;99.90;;;;;;4986039;28;20210;-25
2021/12/27 08:46:40;;;;;;;8.93;5.73;;;10.00;99.90;;;;;;4981740;28;20204;-26
2021/12/27 08:49:07;;;;;;;6.27;5.00;;;10.00;99.90;;;;;;4970470;28;20238;-25
2021/12/27 08:51:37;;;;;;;6.40;5.60;;;10.10;99.90;;;;;;4971106;28;20254;-25
2021/12/27 08:54:04;;;;;;;8.30;5.50;;;10.10;99.90;;;;;;4970115;28;20238;-25
2021/12/27 08:56:32;;;;;;;6.10;4.83;;;10.10;99.90;;;;;;4984828;28;20206;-25
2021/12/27 08:59:02;;;;;;;5.77;4.63;;;10.10;99.90;;;;;;4972741;28;20233;-25
2021/12/27 09:01:29;;;;;;;6.07;4.47;;;10.20;99.90;;;;;;4970774;28;20199;-25
2021/12/27 09:03:56;;;;;;;6.40;4.33;;;10.20;99.90;;;;;;4970938;28;20254;-25
2021/12/27 09:06:24;;;;;;;6.27;4.77;;;10.20;99.90;;;;;;4971230;28;20211;-25
2021/12/27 09:08:51;;;;;;;4.97;4.13;;;10.20;99.90;;;;;;4972538;28;20198;-25
2021/12/27 09:11:18;;;;;;;7.50;4.67;;;10.30;99.90;;;;;;4977626;28;20207;-25
2021/12/27 09:13:46;;;;;;;5.53;4.37;;;10.30;99.90;;;;;;4974363;28;20219;-25
2021/12/27 09:16:40;;;;;;;5.07;3.97;;;10.30;99.90;;;;;;4988397;28;20238;-25
2021/12/27 09:19:10;;;;;;;5.60;4.17;;;10.40;99.90;;;;;;4970349;28;20242;-25
2021/12/27 09:21:41;;;;;;;4.30;3.60;;;10.40;99.90;;;;;;4975361;28;20688;-25
2021/12/27 09:24:14;;;;;;;5.90;4.30;;;10.40;99.90;;;;;;4973409;28;20266;-25
2021/12/27 09:26:45;;;;;;;3.90;3.50;;;10.50;99.90;;;;;;4970918;28;20219;-26
2021/12/27 09:29:12;;;;;;;5.00;3.93;;;10.50;99.90;;;;;;4973592;28;20206;-25
2021/12/27 09:31:39;;;;;;;5.47;4.20;;;10.50;99.90;;;;;;4986929;28;20760;-25
2021/12/27 09:34:06;;;;;;;4.03;3.67;;;10.60;99.90;;;;;;4982410;28;20199;-25
2021/12/27 09:36:36;;;;;;;5.17;3.90;;;10.60;99.90;;;;;;4973855;28;20210;-25
2021/12/27 09:39:04;;;;;;;5.30;3.57;;;10.70;99.90;;;;;;4974979;28;20250;-26
2021/12/27 09:41:31;;;;;;;4.73;3.67;;;10.70;99.90;;;;;;4972898;28;20297;-25
2021/12/27 09:43:59;;;;;;;3.93;3.57;;;10.70;99.90;;;;;;4979644;28;20218;-25
2021/12/27 09:46:26;;;;;;;4.53;3.60;;;10.80;99.90;;;;;;4984735;28;20197;-25
2021/12/27 09:48:57;;;;;;;5.03;3.90;;;10.80;99.90;;;;;;4978516;28;20203;-25
2021/12/27 09:51:28;;;;;;;7.67;4.00;;;10.90;99.90;;;;;;4969270;28;20214;-25
2021/12/27 09:53:55;;;;;;;4.60;3.70;;;10.90;99.90;;;;;;4968185;28;20752;-25
2021/12/27 09:56:23;;;;;;;5.13;3.80;;;10.90;99.90;;;;;;4969253;28;20207;-25
2021/12/27 09:58:50;;;;;;;5.47;3.67;;;11.00;99.90;;;;;;4978752;28;20640;-25
2021/12/27 10:01:17;;;;;;;5.03;4.00;;;11.00;99.90;;;;;;4986446;28;20194;-25
2021/12/27 10:03:56;;;;;;;5.40;3.73;;;11.10;99.90;;;;;;4978585;28;20651;-25
2021/12/27 10:06:26;;;;;;;6.03;4.00;;;11.10;99.90;;;;;;4974259;28;20218;-25
2021/12/27 10:08:58;;;;;;;4.40;3.73;;;11.20;99.90;;;;;;4976116;28;20217;-25
2021/12/27 10:11:27;;;;;;;5.87;4.17;;;11.20;99.90;;;;;;4986888;28;20681;-25
2021/12/27 10:14:11;;;;;;;5.37;3.83;;;11.20;99.90;;;;;;4983830;28;20297;-25
2021/12/27 10:16:44;;;;;;;4.43;3.40;;;11.30;99.90;;;;;;4968975;28;20443;-25
2021/12/27 10:19:16;;;;;;;4.93;4.30;;;11.30;99.90;;;;;;4977998;28;20234;-25
2021/12/27 10:21:51;;;;;;;5.50;3.47;;;11.30;99.90;;;;;;4973922;28;20657;-25
2021/12/27 10:24:28;;;;;;;6.27;3.73;;;11.40;99.90;;;;;;4972357;28;20246;-25
2021/12/27 10:26:58;;;;;;;4.87;3.97;;;11.40;99.90;;;;;;4980039;28;20234;-25
2021/12/27 10:29:33;;;;;;;4.10;3.37;;;11.40;99.90;;;;;;4982769;28;20300;-25
2021/12/27 10:32:06;;;;;;;4.83;3.83;;;11.40;99.90;;;;;;4975892;28;20206;-25
2021/12/27 10:34:43;;;;;;;5.10;3.67;;;11.50;99.90;;;;;;4979933;28;20314;-25
2021/12/27 10:37:28;;;;;;;4.20;3.07;;;11.50;99.90;;;;;;4968753;28;20245;-25
2021/12/27 10:40:03;;;;;;;4.13;3.27;;;11.50;99.90;;;;;;4967742;28;20206;-25
2021/12/27 10:42:35;;;;;;;5.80;3.50;;;11.50;99.90;;;;;;4967859;28;20217;-25
2021/12/27 10:45:12;;;;;;;4.73;3.70;;;11.50;99.90;;;;;;4985195;28;20241;-25
2021/12/27 10:47:51;;;;;;;4.37;3.03;;;11.50;99.90;;;;;;4977414;28;20202;-25
2021/12/27 10:50:26;;;;;;;4.10;3.33;;;11.50;99.90;;;;;;4973659;28;20222;-25
2021/12/27 10:52:59;;;;;;;3.87;3.23;;;11.60;99.90;;;;;;4970096;28;20246;-26
2021/12/27 10:55:35;;;;;;;4.60;3.20;;;11.60;99.90;;;;;;4968313;28;20857;-25
2021/12/27 10:58:26;;;;;;;5.20;3.50;;;11.60;99.90;;;;;;4976692;28;20739;-25
2021/12/27 11:01:07;;;;;;;4.67;3.33;;;11.60;99.90;;;;;;4967829;28;20234;-25
2021/12/27 11:03:44;;;;;;;4.13;3.40;;;11.70;99.90;;;;;;4968299;28;20239;-25
2021/12/27 11:06:16;;;;;;;4.20;2.97;;;11.70;99.90;;;;;;4975848;28;20221;-25
2021/12/27 11:08:46;;;;;;;4.83;3.40;;;11.70;99.90;;;;;;4972714;28;20202;-25
2021/12/27 11:11:17;;;;;;;2.97;2.70;;;11.80;99.90;;;;;;4986322;28;20214;-25
2021/12/27 11:13:49;;;;;;;3.67;2.70;;;11.80;99.90;;;;;;4981856;28;20210;-25
2021/12/27 11:16:21;;;;;;;5.23;3.20;;;11.90;99.90;;;;;;4982117;28;20225;-25
2021/12/27 11:18:50;;;;;;;4.00;2.97;;;11.80;99.90;;;;;;4978780;28;20317;-25
2021/12/27 11:21:22;;;;;;;3.70;2.60;;;11.90;99.90;;;;;;4968997;28;20297;-25
2021/12/27 11:23:52;;;;;;;3.03;2.73;;;11.90;99.90;;;;;;4961441;28;20601;-25
2021/12/27 11:26:30;;;;;;;3.23;2.63;;;12.00;99.90;;;;;;4969032;28;20207;-25
2021/12/27 11:29:09;;;;;;;3.40;2.50;;;12.00;99.90;;;;;;4975296;28;20585;-24
2021/12/27 11:31:39;;;;;;;3.40;2.70;;;12.00;99.90;;;;;;4974357;28;20688;-24
2021/12/27 11:34:13;;;;;;;3.87;2.40;;;12.10;99.90;;;;;;4980285;28;20229;-24
2021/12/27 11:36:47;;;;;;;4.37;2.40;;;12.10;99.90;;;;;;4996285;28;20512;-25
2021/12/27 11:39:29;;;;;;;2.83;2.20;;;12.20;99.90;;;;;;4971999;28;20314;-25
2021/12/27 11:42:06;;;;;;;2.97;2.10;;;12.20;99.90;;;;;;4975138;28;20254;-25
2021/12/27 11:44:45;;;;;;;2.23;2.03;;;12.20;99.90;;;;;;4982093;28;20566;-25
2021/12/27 11:47:23;;;;;;;3.77;2.40;;;12.30;99.90;;;;;;4983026;28;20201;-25
2021/12/27 11:49:53;;;;;;;2.80;2.10;;;12.30;99.90;;;;;;4980302;28;20297;-26
2021/12/27 11:52:28;;;;;;;3.53;2.23;;;12.30;99.90;;;;;;4974442;28;20709;-25
2021/12/27 11:55:00;;;;;;;4.67;2.30;;;12.40;99.90;;;;;;4989156;28;20233;-25
2021/12/27 11:57:43;;;;;;;2.50;2.27;;;12.40;99.90;;;;;;4974875;28;20424;-25
2021/12/27 12:00:24;;;;;;;4.07;2.43;;;12.40;99.90;;;;;;4977560;28;20222;-25
2021/12/27 12:02:55;;;;;;;3.03;2.20;;;12.40;99.90;;;;;;4980633;28;20227;-25
2021/12/27 12:05:44;;;;;;;2.90;2.20;;;12.50;99.90;;;;;;4981601;28;20203;-25
2021/12/27 12:08:37;;;;;;;4.20;2.37;;;12.50;99.90;;;;;;4977072;28;20202;-25
2021/12/27 12:11:13;;;;;;;4.43;2.60;;;12.50;99.90;;;;;;4984703;28;20233;-26
2021/12/27 12:13:47;;;;;;;2.80;2.10;;;12.50;99.90;;;;;;4970948;28;20298;-25
2021/12/27 12:16:23;;;;;;;3.57;2.10;;;12.50;99.90;;;;;;4971646;28;20218;-25
2021/12/27 12:18:53;;;;;;;2.57;1.90;;;12.50;99.90;;;;;;4971424;28;20317;-25
2021/12/27 12:21:40;;;;;;;3.67;2.10;;;12.60;99.90;;;;;;4972552;28;20205;-25
2021/12/27 12:24:10;;;;;;;2.57;2.20;;;12.60;99.90;;;;;;4977901;28;20203;-25
2021/12/27 12:26:58;;;;;;;3.37;1.87;;;12.60;99.90;;;;;;4972480;28;20211;-25
2021/12/27 12:29:45;;;;;;;4.93;2.10;;;12.60;99.90;;;;;;4990147;28;20635;-25
2021/12/27 12:32:15;;;;;;;2.40;2.13;;;12.70;99.90;;;;;;4974721;28;20565;-25
2021/12/27 12:34:43;;;;;;;4.10;2.03;;;12.70;99.90;;;;;;4971339;28;20601;-25
2021/12/27 12:37:15;;;;;;;3.57;1.90;;;12.70;99.90;;;;;;4984112;28;20285;-26
2021/12/27 12:39:47;;;;;;;3.90;2.10;;;12.80;99.90;;;;;;4983285;28;20234;-25
2021/12/27 12:42:17;;;;;;;3.77;2.00;;;12.80;99.90;;;;;;4982150;28;20388;-25
2021/12/27 12:44:53;;;;;;;3.30;2.13;;;12.80;99.90;;;;;;4986784;28;20207;-25
2021/12/27 12:47:40;;;;;;;3.40;2.00;;;12.80;99.90;;;;;;4971574;28;20314;-25
2021/12/27 12:50:22;;;;;;;3.33;1.80;;;12.80;99.90;;;;;;4971204;28;20377;-25
2021/12/27 12:52:59;;;;;;;4.20;1.90;;;12.90;99.90;;;;;;4969851;28;20230;-25
2021/12/27 12:55:30;;;;;;;3.40;1.57;;;12.90;99.90;;;;;;4982429;28;20583;-25
2021/12/27 12:57:57;;;;;;;5.77;2.13;;;12.90;99.90;;;;;;4990313;28;20210;-26
2021/12/27 13:00:29;;;;;;;3.80;2.03;;;12.90;99.90;;;;;;4988050;28;20206;-25
2021/12/27 13:03:14;;;;;;;2.87;2.00;;;12.90;99.90;;;;;;4990347;28;20552;-25
2021/12/27 13:05:41;;;;;;;4.87;1.80;;;12.90;99.90;;;;;;4976795;28;20269;-26
2021/12/27 13:08:13;;;;;;;5.53;1.70;;;12.90;99.90;;;;;;4969341;28;20207;-26
2021/12/27 13:10:41;;;;;;;3.30;1.73;;;12.90;99.90;;;;;;4969614;28;20211;-25